Portada
METAR-TAF:

METAR-TAF

Aeropuertos :

Kélibia, Túnez

latitud: 36-51N, longitud: 011-05E, altitud: 29 m

Observación

El informe se hizo hace 56 minutos, a las 20:00 UTC
Viento 4 kt del este, variando entre norte y sur
Temperatura 15°C
Humedad 82%
Presión 1028 hPa

METAR: DTTL 032000Z AUTO 08004KT 010V170 NCD 15/12 Q1028

Hora: 21:56 (20:56 UTC)


TAF: falta

Observaciones y pronósticos meteorológicos de más de 4000 aeropuertos (mensajes METAR y TAF).

Los puntos amarillos y rojos representan las estaciones disponibles.

Ponga el ratón en el punto deseado para ver el nombre de la estación.

Haga clic para ver las observaciones y los pronósticos meteorológicos.

Para cambiar el mapa : haga clic en los botones verdes con una cruz de color negro para hacer un zoom, en el botón verde con un guión para alejar o en las flechas verdes para mapas adyacentes.


METAR-TAF: